createdAt,value
2022-08-28T00:00:01.154Z,71.93
2022-08-28T00:00:32.503Z,72.03
2022-08-28T00:01:04.500Z,71.74
2022-08-28T00:01:35.935Z,72.12
2022-08-28T00:02:07.701Z,71.89
2022-08-28T00:02:39.070Z,72.00
2022-08-28T00:03:12.575Z,72.56
2022-08-28T00:03:44.584Z,72.59
2022-08-28T00:04:16.020Z,72.55
2022-08-28T00:04:47.697Z,72.31
2022-08-28T00:05:20.686Z,72.76
2022-08-28T00:05:52.113Z,72.15
2022-08-28T00:06:23.455Z,72.24
2022-08-28T00:07:13.580Z,71.77
2022-08-28T00:07:47.862Z,72.27
2022-08-28T00:08:19.661Z,72.13
2022-08-28T00:08:51.106Z,72.27
2022-08-28T00:09:22.580Z,72.00
2022-08-28T00:09:53.917Z,72.41
2022-08-28T00:11:03.643Z,71.98
2022-08-28T00:11:38.132Z,72.65
2022-08-28T00:12:27.939Z,72.57
2022-08-28T00:12:59.907Z,72.33
2022-08-28T00:13:31.723Z,72.63
2022-08-28T00:14:08.768Z,72.51
2022-08-28T00:14:40.255Z,72.68
2022-08-28T00:15:15.214Z,73.27
2022-08-28T00:15:50.870Z,72.98
2022-08-28T00:16:22.759Z,72.71
2022-08-28T00:16:58.212Z,72.88
2022-08-28T00:17:29.607Z,73.17
2022-08-28T00:18:03.505Z,72.87
2022-08-28T00:18:53.630Z,73.49
2022-08-28T00:19:25.272Z,73.67
2022-08-28T00:20:46.668Z,72.85
2022-08-28T00:21:18.000Z,73.30
2022-08-28T00:21:50.180Z,73.31
2022-08-28T00:22:21.774Z,73.44
2022-08-28T00:22:55.611Z,72.96
2022-08-28T00:23:28.412Z,72.97
2022-08-28T00:24:14.303Z,72.59
2022-08-28T00:24:45.755Z,73.05
2022-08-28T00:25:20.560Z,73.32
2022-08-28T00:25:52.567Z,73.29
2022-08-28T00:26:42.591Z,73.30
2022-08-28T00:27:32.612Z,72.77
2022-08-28T00:28:08.924Z,72.79
2022-08-28T00:28:40.544Z,73.03
2022-08-28T00:29:12.073Z,73.18
2022-08-28T00:29:44.133Z,73.21
2022-08-28T00:30:15.496Z,73.14
2022-08-28T00:30:50.864Z,73.38
2022-08-28T00:31:22.289Z,73.36
2022-08-28T00:31:53.887Z,73.31
2022-08-28T00:32:25.274Z,73.09
2022-08-28T00:33:00.735Z,73.29
2022-08-28T00:33:34.421Z,73.49
2022-08-28T00:34:07.620Z,73.41
2022-08-28T00:34:58.682Z,72.80
2022-08-28T00:36:07.683Z,73.56
2022-08-28T00:36:39.179Z,73.12
2022-08-28T00:37:29.147Z,73.32
2022-08-28T00:38:01.231Z,73.44
2022-08-28T00:38:32.784Z,73.77
2022-08-28T00:39:06.344Z,73.62
2022-08-28T00:39:38.498Z,73.54
2022-08-28T00:40:11.102Z,73.63
2022-08-28T00:41:03.689Z,73.23
2022-08-28T00:41:38.764Z,73.39
2022-08-28T00:42:12.555Z,73.75
2022-08-28T00:42:45.740Z,74.04
2022-08-28T00:43:26.384Z,73.77
2022-08-28T00:44:28.711Z,73.76
2022-08-28T00:45:00.432Z,73.95
2022-08-28T00:45:38.767Z,73.85
2022-08-28T00:46:23.225Z,73.24
2022-08-28T00:46:57.176Z,73.50
2022-08-28T00:47:28.635Z,73.81
2022-08-28T00:48:00.381Z,73.82
2022-08-28T00:48:32.777Z,73.84
2022-08-28T00:49:24.456Z,73.64
2022-08-28T00:49:56.232Z,74.00
2022-08-28T00:50:56.771Z,73.77
2022-08-28T00:51:51.143Z,73.09
2022-08-28T00:52:25.321Z,73.15
2022-08-28T00:53:00.503Z,73.50
2022-08-28T00:53:33.069Z,73.59
2022-08-28T00:55:52.143Z,73.53
2022-08-28T00:56:23.691Z,73.61
2022-08-28T00:56:55.868Z,73.69
2022-08-28T00:57:33.780Z,74.26
2022-08-28T00:58:23.824Z,74.09
2022-08-28T00:59:17.224Z,73.85
2022-08-28T01:00:09.103Z,73.55
2022-08-28T01:00:41.138Z,74.40
2022-08-28T01:01:31.690Z,73.94
2022-08-28T01:02:04.926Z,74.59
2022-08-28T01:02:36.397Z,74.43
2022-08-28T01:03:08.677Z,74.36
2022-08-28T01:03:41.083Z,74.72
2022-08-28T01:04:16.827Z,74.07
2022-08-28T01:04:50.508Z,74.68
2022-08-28T01:05:22.348Z,74.34
2022-08-28T01:05:53.779Z,74.88
2022-08-28T01:06:25.148Z,74.37
2022-08-28T01:06:57.743Z,73.88
2022-08-28T01:07:29.336Z,74.77
2022-08-28T01:08:01.790Z,74.35
2022-08-28T01:08:35.172Z,74.39
2022-08-28T01:09:06.542Z,74.27
2022-08-28T01:09:41.612Z,74.25
2022-08-28T01:10:18.172Z,73.97
2022-08-28T01:10:55.891Z,74.54
2022-08-28T01:11:28.917Z,74.78
2022-08-28T01:12:05.357Z,74.60
2022-08-28T01:12:37.204Z,74.26
2022-08-28T01:13:09.159Z,74.48
2022-08-28T01:13:47.085Z,73.92
2022-08-28T01:14:22.972Z,74.51
2022-08-28T01:14:59.936Z,74.32
2022-08-28T01:15:36.422Z,74.23
2022-08-28T01:16:08.928Z,73.72
2022-08-28T01:16:42.990Z,74.09
2022-08-28T01:17:16.863Z,74.85
2022-08-28T01:17:52.131Z,74.83
2022-08-28T01:18:25.244Z,74.46
2022-08-28T01:18:57.378Z,75.14
2022-08-28T01:19:55.423Z,74.95
2022-08-28T01:20:33.788Z,74.97
2022-08-28T01:21:10.324Z,75.37
2022-08-28T01:22:34.652Z,75.12
2022-08-28T01:24:20.050Z,74.91
2022-08-28T01:24:54.027Z,75.29
2022-08-28T01:25:30.356Z,75.54
2022-08-28T01:26:01.700Z,75.05
2022-08-28T01:26:39.639Z,74.47
2022-08-28T01:27:11.075Z,74.55
2022-08-28T01:27:42.754Z,74.87
2022-08-28T01:28:15.212Z,74.87
2022-08-28T01:28:47.463Z,75.17
2022-08-28T01:29:19.167Z,74.96
2022-08-28T01:29:50.661Z,75.09
2022-08-28T01:30:23.448Z,74.70
2022-08-28T01:30:55.084Z,74.35
2022-08-28T01:31:29.984Z,74.69
2022-08-28T01:32:01.433Z,74.86
2022-08-28T01:32:39.290Z,74.38
2022-08-28T01:33:12.020Z,74.93
2022-08-28T01:33:45.576Z,74.93
2022-08-28T01:34:17.058Z,75.29
2022-08-28T01:34:48.389Z,75.20
2022-08-28T01:35:23.803Z,74.85
2022-08-28T01:35:55.211Z,75.51
2022-08-28T01:36:28.960Z,75.45
2022-08-28T01:37:01.252Z,74.97
2022-08-28T01:37:36.387Z,75.46
2022-08-28T01:38:26.891Z,75.23
2022-08-28T01:39:11.976Z,75.30
2022-08-28T01:39:43.316Z,75.51
2022-08-28T01:40:17.867Z,75.54
2022-08-28T01:40:53.396Z,75.45
2022-08-28T01:41:25.295Z,75.55
2022-08-28T01:41:57.123Z,75.50
2022-08-28T01:42:28.467Z,75.00
2022-08-28T01:43:14.168Z,75.55
2022-08-28T01:44:04.863Z,75.61
2022-08-28T01:44:36.632Z,76.14
2022-08-28T01:45:11.688Z,75.98
2022-08-28T01:45:45.941Z,76.12
2022-08-28T01:46:18.633Z,76.03
2022-08-28T01:46:53.187Z,75.74
2022-08-28T01:47:24.552Z,76.04
2022-08-28T01:47:55.903Z,75.89
2022-08-28T01:48:29.044Z,76.33
2022-08-28T01:49:19.123Z,75.27
2022-08-28T01:49:51.580Z,75.42
2022-08-28T01:50:22.958Z,75.76
2022-08-28T01:51:45.158Z,75.53
2022-08-28T01:52:36.303Z,75.54
2022-08-28T01:53:12.560Z,75.22
2022-08-28T01:53:46.398Z,75.91
2022-08-28T01:54:18.085Z,76.10
2022-08-28T01:54:50.200Z,76.00
2022-08-28T01:55:21.735Z,76.32
2022-08-28T01:55:54.773Z,76.17
2022-08-28T01:56:26.153Z,76.43
2022-08-28T01:57:16.101Z,76.38
2022-08-28T01:57:51.943Z,76.25
2022-08-28T01:58:24.779Z,76.19
2022-08-28T01:59:02.047Z,76.49
2022-08-28T01:59:33.552Z,76.33
2022-08-28T02:00:05.561Z,76.08
2022-08-28T02:00:37.327Z,76.10
2022-08-28T02:01:13.486Z,76.30
2022-08-28T02:01:44.948Z,76.14
2022-08-28T02:02:17.399Z,76.01
2022-08-28T02:02:48.749Z,75.91
2022-08-28T02:04:11.510Z,75.85
2022-08-28T02:04:46.235Z,76.28
2022-08-28T02:05:19.480Z,76.12
2022-08-28T02:06:09.802Z,76.10
2022-08-28T02:06:41.667Z,75.93
2022-08-28T02:07:13.023Z,76.71
2022-08-28T02:07:44.792Z,75.97
2022-08-28T02:08:34.898Z,76.32
2022-08-28T02:09:07.321Z,75.92
2022-08-28T02:09:46.152Z,76.83
2022-08-28T02:10:18.088Z,75.84
2022-08-28T02:10:49.577Z,75.88
2022-08-28T02:11:24.299Z,76.27
2022-08-28T02:11:55.661Z,75.91
2022-08-28T02:12:26.983Z,76.23
2022-08-28T02:12:59.695Z,76.28
2022-08-28T02:13:33.608Z,75.86
2022-08-28T02:14:23.435Z,75.76
2022-08-28T02:15:13.320Z,75.99
2022-08-28T02:15:45.945Z,75.95
2022-08-28T02:16:17.785Z,75.74
2022-08-28T02:16:50.159Z,75.89
2022-08-28T02:17:21.516Z,76.30
2022-08-28T02:17:52.903Z,75.68
2022-08-28T02:18:24.623Z,75.70
2022-08-28T02:18:56.595Z,75.92
2022-08-28T02:19:28.029Z,76.18
2022-08-28T02:20:00.124Z,75.88
2022-08-28T02:20:33.811Z,76.30
2022-08-28T02:21:06.497Z,75.84
2022-08-28T02:21:37.940Z,75.66
2022-08-28T02:22:09.498Z,75.94
2022-08-28T02:22:41.051Z,76.11
2022-08-28T02:23:30.937Z,75.92
2022-08-28T02:24:51.296Z,76.19
2022-08-28T02:25:22.926Z,76.28
2022-08-28T02:25:54.279Z,76.57
2022-08-28T02:26:25.977Z,76.46
2022-08-28T02:27:15.846Z,75.83
2022-08-28T02:28:05.964Z,76.21
2022-08-28T02:28:37.942Z,76.47
2022-08-28T02:29:28.099Z,76.46
2022-08-28T02:29:59.705Z,76.37
2022-08-28T02:30:31.378Z,76.17
2022-08-28T02:31:21.477Z,76.04
2022-08-28T02:31:52.916Z,76.68
2022-08-28T02:33:16.046Z,76.79
2022-08-28T02:33:47.479Z,77.09
2022-08-28T02:34:18.832Z,76.86
2022-08-28T02:34:50.199Z,76.83
2022-08-28T02:35:23.281Z,76.91
2022-08-28T02:35:54.909Z,76.78
2022-08-28T02:36:26.391Z,76.67
2022-08-28T02:36:57.739Z,77.16
2022-08-28T02:37:47.764Z,77.37
2022-08-28T02:38:38.095Z,76.63
2022-08-28T02:39:10.462Z,77.29
2022-08-28T02:40:31.572Z,77.24
2022-08-28T02:41:04.328Z,76.79
2022-08-28T02:41:35.804Z,77.26
2022-08-28T02:42:07.203Z,77.16
2022-08-28T02:43:27.577Z,77.01
2022-08-28T02:44:17.474Z,76.98
2022-08-28T02:44:48.936Z,77.21
2022-08-28T02:45:20.916Z,77.52
2022-08-28T02:45:52.273Z,76.78
2022-08-28T02:46:25.377Z,77.32
2022-08-28T02:46:57.068Z,76.62
2022-08-28T02:47:28.966Z,77.11
2022-08-28T02:48:01.845Z,77.13
2022-08-28T02:48:35.446Z,76.90
2022-08-28T02:49:06.779Z,76.72
2022-08-28T02:49:38.115Z,77.57
2022-08-28T02:50:12.942Z,77.78
2022-08-28T02:50:46.150Z,77.84
2022-08-28T02:51:19.948Z,77.83
2022-08-28T02:51:51.913Z,77.68
2022-08-28T02:52:24.752Z,77.88
2022-08-28T02:52:56.150Z,77.75
2022-08-28T02:53:28.164Z,77.82
2022-08-28T02:54:00.600Z,77.44
2022-08-28T02:54:32.042Z,77.46
2022-08-28T02:55:23.068Z,77.34
2022-08-28T02:55:55.016Z,77.68
2022-08-28T02:56:26.707Z,77.83
2022-08-28T02:56:58.561Z,77.72
2022-08-28T02:57:30.303Z,77.93
2022-08-28T02:58:01.658Z,77.70
2022-08-28T02:58:33.852Z,77.86
2022-08-28T02:59:54.096Z,77.79
2022-08-28T03:00:26.437Z,77.42
2022-08-28T03:01:01.874Z,78.09
2022-08-28T03:01:34.167Z,78.00
2022-08-28T03:02:07.174Z,77.69
2022-08-28T03:02:41.057Z,78.16
2022-08-28T03:03:12.495Z,77.83
2022-08-28T03:03:43.987Z,78.26
2022-08-28T03:04:15.394Z,77.94
2022-08-28T03:04:46.780Z,77.80
2022-08-28T03:05:21.500Z,77.73
2022-08-28T03:05:53.172Z,78.14
2022-08-28T03:06:24.503Z,78.04
2022-08-28T03:06:55.852Z,78.06
2022-08-28T03:07:29.234Z,78.07
2022-08-28T03:08:00.819Z,78.19
2022-08-28T03:08:32.788Z,78.27
2022-08-28T03:09:05.384Z,78.41
2022-08-28T03:09:36.795Z,77.72
2022-08-28T03:10:09.566Z,78.12
2022-08-28T03:10:41.972Z,78.18
2022-08-28T03:11:13.366Z,77.92
2022-08-28T03:11:44.736Z,78.11
2022-08-28T03:12:17.053Z,78.00
2022-08-28T03:12:49.244Z,77.56
2022-08-28T03:13:23.038Z,77.82
2022-08-28T03:13:58.549Z,77.72
2022-08-28T03:14:30.869Z,77.86
2022-08-28T03:15:02.814Z,77.51
2022-08-28T03:15:34.301Z,78.17
2022-08-28T03:16:06.022Z,77.45
2022-08-28T03:16:37.423Z,77.73
2022-08-28T03:17:08.840Z,78.08
2022-08-28T03:17:40.360Z,77.83
2022-08-28T03:18:14.930Z,78.10
2022-08-28T03:18:47.379Z,77.82
2022-08-28T03:19:18.956Z,77.97
2022-08-28T03:20:09.174Z,78.15
2022-08-28T03:20:59.851Z,77.92
2022-08-28T03:22:43.119Z,78.26
2022-08-28T03:23:33.251Z,78.43
2022-08-28T03:24:05.132Z,78.60
2022-08-28T03:24:37.650Z,78.21
2022-08-28T03:25:10.672Z,78.41
2022-08-28T03:25:41.986Z,78.49
2022-08-28T03:26:19.388Z,78.36
2022-08-28T03:26:50.891Z,78.12
2022-08-28T03:27:22.231Z,78.75
2022-08-28T03:27:54.220Z,78.72
2022-08-28T03:28:50.280Z,78.91
2022-08-28T03:29:21.868Z,78.40
2022-08-28T03:29:53.201Z,78.74
2022-08-28T03:30:24.683Z,78.54
2022-08-28T03:30:56.648Z,78.28
2022-08-28T03:31:33.004Z,78.72
2022-08-28T03:32:04.444Z,78.36
2022-08-28T03:32:35.877Z,78.20
2022-08-28T03:33:26.719Z,78.68
2022-08-28T03:33:58.212Z,78.73
2022-08-28T03:34:29.632Z,78.27
2022-08-28T03:35:01.218Z,78.21
2022-08-28T03:35:32.616Z,78.23
2022-08-28T03:36:04.633Z,78.31
2022-08-28T03:36:36.561Z,78.45
2022-08-28T03:37:08.265Z,78.04
2022-08-28T03:37:39.743Z,78.70
2022-08-28T03:38:11.717Z,78.48
2022-08-28T03:39:31.963Z,78.24
2022-08-28T03:40:04.580Z,77.97
2022-08-28T03:40:39.316Z,78.19
2022-08-28T03:41:13.025Z,78.55
2022-08-28T03:41:44.352Z,78.00
2022-08-28T03:42:15.902Z,77.85
2022-08-28T03:42:53.626Z,78.22
2022-08-28T03:43:25.768Z,78.19
2022-08-28T03:43:59.564Z,78.11
2022-08-28T03:44:49.936Z,78.25
2022-08-28T03:45:21.553Z,78.13
2022-08-28T03:46:01.344Z,77.99
2022-08-28T03:46:33.131Z,77.91
2022-08-28T03:47:04.747Z,78.00
2022-08-28T03:47:39.487Z,77.70
2022-08-28T03:48:11.297Z,78.13
2022-08-28T03:48:44.704Z,77.44
2022-08-28T03:49:16.401Z,77.83
2022-08-28T03:49:55.459Z,77.91
2022-08-28T03:51:19.834Z,77.84
2022-08-28T03:51:57.512Z,77.97
2022-08-28T03:52:28.855Z,77.94
2022-08-28T03:53:49.810Z,78.16
2022-08-28T03:54:21.139Z,78.16
2022-08-28T03:54:52.666Z,77.75
2022-08-28T03:55:24.596Z,78.49
2022-08-28T03:55:57.823Z,78.49
2022-08-28T03:56:31.017Z,78.17
2022-08-28T03:57:02.367Z,78.42
2022-08-28T03:57:52.391Z,78.39
2022-08-28T03:58:24.691Z,78.41
2022-08-28T03:58:59.346Z,78.46
2022-08-28T03:59:33.749Z,78.23
2022-08-28T04:00:09.152Z,78.50
2022-08-28T04:00:41.855Z,77.97
2022-08-28T04:01:15.883Z,78.91
2022-08-28T04:01:47.415Z,78.52
2022-08-28T04:02:20.387Z,78.48
2022-08-28T04:03:13.460Z,78.35
2022-08-28T04:03:45.546Z,78.48
2022-08-28T04:04:16.912Z,78.11
2022-08-28T04:04:50.037Z,78.52
2022-08-28T04:05:21.447Z,78.31
2022-08-28T04:05:57.276Z,78.47
2022-08-28T04:06:47.221Z,78.30
2022-08-28T04:07:19.616Z,78.06
2022-08-28T04:07:51.836Z,78.08
2022-08-28T04:08:23.923Z,78.11
2022-08-28T04:08:55.709Z,78.47
2022-08-28T04:09:31.741Z,78.17
2022-08-28T04:11:11.575Z,78.44
2022-08-28T04:11:42.921Z,78.01
2022-08-28T04:12:14.411Z,78.34
2022-08-28T04:12:45.979Z,78.16
2022-08-28T04:13:19.676Z,78.45
2022-08-28T04:13:51.027Z,78.13
2022-08-28T04:15:29.808Z,77.98
2022-08-28T04:16:10.647Z,78.10
2022-08-28T04:17:01.634Z,78.31
2022-08-28T04:17:33.136Z,78.38
2022-08-28T04:18:04.668Z,78.75
2022-08-28T04:19:46.477Z,78.64
2022-08-28T04:20:20.955Z,78.93
2022-08-28T04:21:00.442Z,78.36
2022-08-28T04:21:31.907Z,78.36
2022-08-28T04:22:03.712Z,78.60
2022-08-28T04:23:26.431Z,78.37
2022-08-28T04:23:57.775Z,78.48
2022-08-28T04:24:29.204Z,78.50
2022-08-28T04:25:00.957Z,79.11
2022-08-28T04:25:32.309Z,78.80
2022-08-28T04:26:24.020Z,78.51
2022-08-28T04:26:55.373Z,79.00
2022-08-28T04:28:04.379Z,78.83
2022-08-28T04:28:36.464Z,78.75
2022-08-28T04:29:08.120Z,79.11
2022-08-28T04:29:39.464Z,79.55
2022-08-28T04:30:11.860Z,79.40
2022-08-28T04:30:43.194Z,79.52
2022-08-28T04:31:15.014Z,79.36
2022-08-28T04:31:46.503Z,79.21
2022-08-28T04:32:17.930Z,79.35
2022-08-28T04:32:49.590Z,79.21
2022-08-28T04:33:22.349Z,79.15
2022-08-28T04:33:53.740Z,78.88
2022-08-28T04:34:25.078Z,79.04
2022-08-28T04:34:56.607Z,78.93
2022-08-28T04:35:28.939Z,79.12
2022-08-28T04:36:05.771Z,79.58
2022-08-28T04:36:37.897Z,79.06
2022-08-28T04:37:09.280Z,79.08
2022-08-28T04:38:01.229Z,79.48
2022-08-28T04:38:34.104Z,79.35
2022-08-28T04:39:08.726Z,79.19
2022-08-28T04:39:40.175Z,79.52
2022-08-28T04:41:10.909Z,78.82
2022-08-28T04:41:42.245Z,79.13
2022-08-28T04:42:14.060Z,79.22
2022-08-28T04:43:03.851Z,79.36
2022-08-28T04:44:24.452Z,79.30
2022-08-28T04:44:59.972Z,79.61
2022-08-28T04:45:31.386Z,79.60
2022-08-28T04:46:07.096Z,79.62
2022-08-28T04:46:38.877Z,80.04
2022-08-28T04:47:10.596Z,79.40
2022-08-28T04:47:41.971Z,79.60
2022-08-28T04:48:14.064Z,79.55
2022-08-28T04:48:45.460Z,79.55
2022-08-28T04:49:17.596Z,79.63
2022-08-28T04:49:49.773Z,79.61
2022-08-28T04:50:21.200Z,79.70
2022-08-28T04:50:52.562Z,79.67
2022-08-28T04:51:23.907Z,80.09
2022-08-28T04:51:55.584Z,79.70
2022-08-28T04:52:27.490Z,79.68
2022-08-28T04:52:58.838Z,79.98
2022-08-28T04:55:14.924Z,79.62
2022-08-28T04:55:54.224Z,79.72
2022-08-28T04:56:27.002Z,79.85
2022-08-28T04:56:58.339Z,80.16
2022-08-28T04:57:35.690Z,79.82
2022-08-28T04:58:08.010Z,80.43
2022-08-28T04:58:41.000Z,80.01
2022-08-28T04:59:12.856Z,80.04
2022-08-28T04:59:44.997Z,79.95
2022-08-28T05:00:34.962Z,80.58
2022-08-28T05:01:11.135Z,80.14
2022-08-28T05:01:42.806Z,79.93
2022-08-28T05:02:14.226Z,80.11
2022-08-28T05:03:04.281Z,80.51
2022-08-28T05:03:35.627Z,80.14
2022-08-28T05:04:06.958Z,80.22
2022-08-28T05:04:38.324Z,79.93
2022-08-28T05:05:11.663Z,80.14
2022-08-28T05:05:44.611Z,79.98
2022-08-28T05:06:16.683Z,80.53
2022-08-28T05:06:48.220Z,80.52
2022-08-28T05:07:19.570Z,80.49
2022-08-28T05:07:50.916Z,80.34
2022-08-28T05:08:27.021Z,80.48
2022-08-28T05:09:00.712Z,80.68
2022-08-28T05:09:32.143Z,80.29
2022-08-28T05:10:23.330Z,80.19
2022-08-28T05:10:55.780Z,80.09
2022-08-28T05:11:34.237Z,80.10
2022-08-28T05:12:06.479Z,80.40
2022-08-28T05:12:56.784Z,80.39
2022-08-28T05:13:28.734Z,80.45
2022-08-28T05:14:00.087Z,80.28
2022-08-28T05:14:31.824Z,80.51
2022-08-28T05:15:04.096Z,80.44
2022-08-28T05:15:47.251Z,80.26
2022-08-28T05:16:20.329Z,80.72
2022-08-28T05:16:52.969Z,79.94
2022-08-28T05:17:24.328Z,80.32
2022-08-28T05:17:59.150Z,80.27
2022-08-28T05:18:30.555Z,80.13
2022-08-28T05:19:03.400Z,79.84
2022-08-28T05:19:34.817Z,80.30
2022-08-28T05:20:06.639Z,80.14
2022-08-28T05:20:41.610Z,80.51
2022-08-28T05:21:20.518Z,80.49
2022-08-28T05:21:51.999Z,80.25
2022-08-28T05:22:23.644Z,80.65
2022-08-28T05:22:55.017Z,80.31
2022-08-28T05:23:26.367Z,80.22
2022-08-28T05:24:47.741Z,80.35
2022-08-28T05:25:19.080Z,80.36
2022-08-28T05:25:50.489Z,80.20
2022-08-28T05:26:22.189Z,80.12
2022-08-28T05:26:58.436Z,80.49
2022-08-28T05:27:48.188Z,80.30
2022-08-28T05:28:19.587Z,80.33
2022-08-28T05:29:09.553Z,80.68
2022-08-28T05:29:40.896Z,80.77
2022-08-28T05:30:12.943Z,80.25
2022-08-28T05:30:44.713Z,80.27
2022-08-28T05:31:18.661Z,80.63
2022-08-28T05:31:50.091Z,80.42
2022-08-28T05:32:21.604Z,80.18
2022-08-28T05:32:53.532Z,79.97
2022-08-28T05:33:24.996Z,80.35
2022-08-28T05:34:15.868Z,80.32
2022-08-28T05:34:47.419Z,79.99
2022-08-28T05:35:18.845Z,80.34
2022-08-28T05:35:50.231Z,80.25
2022-08-28T05:36:23.298Z,80.22
2022-08-28T05:36:57.913Z,80.23
2022-08-28T05:37:29.260Z,80.43
2022-08-28T05:38:00.646Z,80.40
2022-08-28T05:38:32.551Z,80.54
2022-08-28T05:39:07.077Z,80.55
2022-08-28T05:39:38.473Z,80.75
2022-08-28T05:40:10.492Z,80.60
2022-08-28T05:40:43.950Z,80.55
2022-08-28T05:41:20.609Z,80.54
2022-08-28T05:41:51.987Z,80.73
2022-08-28T05:42:23.344Z,80.92
2022-08-28T05:43:01.856Z,80.82
2022-08-28T05:43:33.197Z,80.82
2022-08-28T05:44:07.409Z,80.88
2022-08-28T05:44:38.743Z,80.37
2022-08-28T05:45:10.552Z,80.77
2022-08-28T05:45:42.792Z,80.67
2022-08-28T05:46:16.125Z,80.89
2022-08-28T05:46:48.135Z,81.12
2022-08-28T05:47:21.594Z,80.65
2022-08-28T05:47:53.927Z,80.63
2022-08-28T05:48:32.941Z,81.35
2022-08-28T05:49:12.272Z,81.00
2022-08-28T05:49:44.363Z,81.61
2022-08-28T05:50:15.692Z,81.41
2022-08-28T05:50:47.691Z,81.43
2022-08-28T05:51:22.605Z,81.55
2022-08-28T05:51:53.959Z,81.66
2022-08-28T05:52:44.197Z,81.50
2022-08-28T05:53:17.921Z,81.59
2022-08-28T05:53:50.499Z,81.82
2022-08-28T05:54:22.215Z,82.19
2022-08-28T05:54:53.663Z,81.99
2022-08-28T05:55:25.062Z,81.77
2022-08-28T05:55:56.440Z,81.75
2022-08-28T05:57:36.763Z,82.09
2022-08-28T05:59:16.390Z,81.41
2022-08-28T05:59:47.802Z,81.67
2022-08-28T06:00:19.248Z,82.04
2022-08-28T06:00:50.584Z,81.75
2022-08-28T06:01:28.487Z,81.73
2022-08-28T06:02:04.142Z,82.30
2022-08-28T06:02:54.611Z,82.16
2022-08-28T06:03:26.037Z,81.93
2022-08-28T06:04:00.375Z,81.70
2022-08-28T06:04:31.899Z,81.71
2022-08-28T06:05:03.419Z,82.52
2022-08-28T06:05:34.733Z,81.91
2022-08-28T06:06:07.764Z,81.63
2022-08-28T06:06:41.052Z,82.01
2022-08-28T06:07:13.651Z,81.92
2022-08-28T06:07:44.962Z,81.96
2022-08-28T06:08:16.355Z,81.97
2022-08-28T06:09:06.572Z,81.68
2022-08-28T06:09:38.356Z,82.02
2022-08-28T06:10:10.736Z,81.78
2022-08-28T06:10:45.929Z,81.69
2022-08-28T06:12:11.672Z,81.71
2022-08-28T06:12:43.491Z,81.62
2022-08-28T06:13:15.717Z,82.32
2022-08-28T06:14:37.293Z,81.55
2022-08-28T06:15:09.538Z,81.94
2022-08-28T06:15:42.356Z,81.68
2022-08-28T06:16:13.832Z,81.52
2022-08-28T06:17:06.055Z,81.90
2022-08-28T06:17:56.096Z,81.98
2022-08-28T06:18:27.663Z,81.57
2022-08-28T06:19:00.322Z,81.56
2022-08-28T06:19:37.214Z,82.05
2022-08-28T06:20:11.124Z,81.75
2022-08-28T06:20:44.950Z,81.87
2022-08-28T06:21:34.944Z,82.08
2022-08-28T06:22:55.439Z,81.39
2022-08-28T06:23:26.819Z,81.44
2022-08-28T06:23:58.122Z,81.87
2022-08-28T06:24:30.253Z,81.57
2022-08-28T06:25:03.770Z,81.50
2022-08-28T06:25:40.398Z,81.91
2022-08-28T06:26:11.895Z,82.01
2022-08-28T06:26:44.296Z,82.39
2022-08-28T06:27:15.643Z,82.13
2022-08-28T06:27:46.966Z,82.51
2022-08-28T06:28:22.239Z,82.33
2022-08-28T06:28:53.938Z,82.39
2022-08-28T06:29:27.414Z,82.34
2022-08-28T06:29:58.751Z,82.41
2022-08-28T06:30:30.267Z,82.54
2022-08-28T06:31:22.863Z,82.71
2022-08-28T06:31:58.481Z,81.78
2022-08-28T06:32:48.651Z,82.25
2022-08-28T06:33:21.463Z,82.92
2022-08-28T06:33:54.703Z,83.04
2022-08-28T06:34:27.358Z,82.56
2022-08-28T06:34:58.680Z,82.41
2022-08-28T06:35:31.192Z,82.27
2022-08-28T06:36:05.041Z,82.42
2022-08-28T06:36:39.851Z,82.37
2022-08-28T06:37:11.229Z,82.57
2022-08-28T06:37:42.558Z,82.13
2022-08-28T06:38:14.879Z,81.95
2022-08-28T06:38:46.835Z,81.68
2022-08-28T06:39:18.220Z,81.25
2022-08-28T06:39:49.538Z,81.73
2022-08-28T06:40:20.916Z,81.85
2022-08-28T06:40:55.539Z,81.87
2022-08-28T06:41:28.303Z,81.63
2022-08-28T06:41:59.911Z,81.46
2022-08-28T06:42:32.631Z,81.13
2022-08-28T06:43:03.951Z,81.12
2022-08-28T06:43:35.271Z,80.60
2022-08-28T06:44:26.703Z,80.88
2022-08-28T06:44:58.396Z,81.35
2022-08-28T06:45:30.961Z,80.95
2022-08-28T06:46:02.611Z,81.12
2022-08-28T06:46:36.615Z,81.27
2022-08-28T06:47:11.039Z,81.43
2022-08-28T06:47:42.712Z,81.19
2022-08-28T06:48:16.787Z,81.44
2022-08-28T06:48:48.118Z,80.88
2022-08-28T06:49:19.962Z,80.63
2022-08-28T06:49:51.495Z,80.45
2022-08-28T06:50:22.808Z,80.13
2022-08-28T06:50:55.998Z,80.03
2022-08-28T06:51:27.330Z,79.82
2022-08-28T06:51:58.680Z,80.19
2022-08-28T06:52:30.493Z,79.66
2022-08-28T06:53:01.903Z,80.19
2022-08-28T06:53:33.981Z,78.80
2022-08-28T06:54:05.922Z,78.79
2022-08-28T06:54:37.280Z,78.61
2022-08-28T06:55:09.914Z,78.36
2022-08-28T06:55:42.835Z,78.45
2022-08-28T06:56:26.535Z,78.34
2022-08-28T06:57:17.083Z,77.11
2022-08-28T06:57:48.411Z,76.48
2022-08-28T06:58:19.734Z,77.09
2022-08-28T06:58:51.209Z,77.66
2022-08-28T06:59:23.180Z,76.96
2022-08-28T06:59:58.183Z,76.66
2022-08-28T07:00:29.655Z,76.60
2022-08-28T07:01:22.785Z,76.35
2022-08-28T07:01:54.675Z,76.12
2022-08-28T07:02:28.405Z,76.37
2022-08-28T07:03:00.078Z,76.27
2022-08-28T07:03:31.682Z,76.81
2022-08-28T07:04:08.718Z,76.50
2022-08-28T07:04:40.095Z,76.71
2022-08-28T07:05:11.505Z,76.53
2022-08-28T07:05:42.818Z,76.57
2022-08-28T07:06:15.082Z,76.16
2022-08-28T07:06:53.740Z,76.19
2022-08-28T07:08:15.444Z,75.88
2022-08-28T07:08:47.811Z,75.86
2022-08-28T07:09:19.133Z,76.02
2022-08-28T07:09:50.452Z,76.09
2022-08-28T07:10:59.307Z,76.43
2022-08-28T07:11:32.360Z,76.20
2022-08-28T07:12:04.096Z,76.08
2022-08-28T07:12:37.406Z,75.69
2022-08-28T07:13:08.740Z,75.79
2022-08-28T07:13:59.888Z,75.29
2022-08-28T07:14:31.235Z,75.15
2022-08-28T07:15:04.415Z,75.14
2022-08-28T07:15:38.564Z,74.77
2022-08-28T07:16:16.405Z,75.55
2022-08-28T07:16:47.820Z,75.24
2022-08-28T07:17:19.160Z,75.09
2022-08-28T07:17:51.244Z,74.58
2022-08-28T07:18:23.344Z,74.76
2022-08-28T07:19:14.750Z,74.24
2022-08-28T07:19:46.441Z,74.86
2022-08-28T07:20:18.023Z,74.68
2022-08-28T07:20:57.286Z,75.23
2022-08-28T07:21:28.624Z,75.05
2022-08-28T07:22:00.150Z,74.62
2022-08-28T07:22:31.507Z,74.40
2022-08-28T07:23:03.079Z,75.13
2022-08-28T07:23:36.055Z,74.14
2022-08-28T07:24:26.811Z,73.45
2022-08-28T07:24:58.143Z,73.75
2022-08-28T07:25:29.540Z,73.75
2022-08-28T07:26:04.432Z,73.62
2022-08-28T07:26:36.572Z,73.57
2022-08-28T07:27:26.317Z,73.24
2022-08-28T07:27:57.700Z,73.31
2022-08-28T07:28:29.501Z,72.95
2022-08-28T07:29:10.258Z,73.26
2022-08-28T07:29:42.716Z,72.56
2022-08-28T07:30:32.883Z,72.87
2022-08-28T07:31:11.777Z,72.79
2022-08-28T07:31:49.072Z,71.86
2022-08-28T07:32:21.802Z,71.44
2022-08-28T07:32:53.288Z,71.73
2022-08-28T07:33:25.174Z,71.23
2022-08-28T07:33:56.531Z,72.59
2022-08-28T07:34:27.851Z,72.13
2022-08-28T07:34:59.663Z,71.74
2022-08-28T07:35:31.792Z,71.77
2022-08-28T07:37:47.471Z,71.18
2022-08-28T07:38:19.448Z,70.58
2022-08-28T07:38:51.025Z,70.25
2022-08-28T07:39:22.626Z,70.59
2022-08-28T07:39:54.023Z,70.74
2022-08-28T07:40:25.401Z,70.55
2022-08-28T07:40:56.914Z,70.68
2022-08-28T07:41:31.677Z,70.65
2022-08-28T07:42:03.529Z,70.34
2022-08-28T07:42:53.635Z,70.55
2022-08-28T07:43:43.885Z,70.31
2022-08-28T07:44:49.912Z,70.54
2022-08-28T07:45:21.452Z,71.14
2022-08-28T07:46:14.207Z,70.91
2022-08-28T07:47:53.646Z,70.55
2022-08-28T07:48:25.150Z,71.07
2022-08-28T07:48:58.664Z,71.22
2022-08-28T07:49:31.336Z,70.84
2022-08-28T07:50:02.743Z,71.17
2022-08-28T07:50:34.900Z,71.02
2022-08-28T07:51:07.881Z,70.88
2022-08-28T07:51:39.248Z,70.90
2022-08-28T07:52:11.739Z,71.26
2022-08-28T07:52:43.128Z,69.37
2022-08-28T07:53:15.561Z,69.78
2022-08-28T07:53:47.221Z,69.86
2022-08-28T07:54:20.105Z,70.15
2022-08-28T07:54:51.601Z,69.76
2022-08-28T07:55:22.968Z,70.29
2022-08-28T07:55:54.353Z,70.02
2022-08-28T07:56:29.496Z,71.06
2022-08-28T07:57:02.635Z,69.24
2022-08-28T07:57:35.058Z,67.56
2022-08-28T07:58:07.200Z,67.69
2022-08-28T07:58:38.700Z,67.83